Main page
METAR-TAF:

METAR-TAF

Airports :

Williamson County Regional Airport

Marion, Illinois, United States

latitude: 37-45-01N, longitude: 089-00-04W, elevation: 472 ft

Current weather observation

The report was made 12 minutes ago, at 03:35 UTC
Wind 5 mph from the South/Southwest
Temperature 50°F
Humidity 53%
Pressure 30.08 in. Hg
Visibility: 10 miles
Clear sky

METAR: KMWA 230335Z AUTO 21004KT 10SM CLR 10/01 A3008 RMK AO2 T01040010

Time: 22:47 (03:47 UTC)


TAF: missing

Weather observations and forecasts of more than 4000 airports (METAR and TAF reports).

The available stations are represented by yellow and red dots on the map.

Hover mouse over dot to see the name of the station.

Then click to see weather observations and forecasts.

To change the map : click on the green buttons with a black cross to zoom in, on the green button with a dash to zoom out, or on the green arrows for adjacent maps.


METAR-TAF: